Oslo, MN

08:48 AM CDT on September 30, 2014 (GMT -0500)
Grafton Municipal | Change Station
CLOSE
Current Station
Airport
Location: Grafton,
Elevation: 823 ft
Nearby Weather Stations

Elev 823 ft 48.40 °N, 97.37 °W | Updated 13 minutes ago

Gedeeltelik Bewolk
Gedeeltelik Bewolk
41 °F
Feels Like 34 °F
N
12
Wind Veranderlik Wind from SO

Vandag
High -- | Low -- °F
--% Chance of Precip.
Yesterday
High -- | Low -- °F
Precip. -- in
7:26 AM 7:09 PM
Waxing Crescent, 37% visible
Druk 29.95 in
Sigbaarheid 10.0 myle
Wolke Verspreide Wolke 500 ft
Meestal Bewolk 6500 ft
Wind afkoel 34 °F
Dou-punt 41 °F
Humiditeit 100%
Rainfall 0.00 in
Snow Depth Not available.
UV 0 out of 12
Pollen 2.60 out of 12
Air Quality Not available.
Flu Activity Not available.
METAR KGAF 301335Z AUTO 13010KT 10SM SCT005 BKN065 05/05 A2995 RMK AO2

More Conditions Fewer Conditions

Druk 29.95 in
Sigbaarheid 10.0 myle
Wolke Verspreide Wolke 500 ft
Meestal Bewolk 6500 ft
Wind afkoel 34 °F
Dou-punt 41 °F
Humiditeit 100%
Rainfall 0.00 in
Snow Depth Not available.
UV 0 out of 12
Pollen 2.60 out of 12
Air Quality Not available.
Flu Activity Not available.
METAR KGAF 301335Z AUTO 13010KT 10SM SCT005 BKN065 05/05 A2995 RMK AO2

More Conditions Fewer Conditions

10-Day Weather Forecast

Almanac

Astronomy

Sep. 30, 2014 Rise Set
Ware Tyd 7:26 AM CDT 7:09 PM CDT
Civil Twilight 6:55 AM CDT 7:40 PM CDT
Nautical Twilight 6:18 AM CDT 8:16 PM CDT
Astronomical Twilight 5:41 AM CDT 8:53 PM CDT
Maan 1:56 PM CDT 11:20 PM CDT
Length Of Visible Light 12h 45m
Length of Day
11h 43m
Tomorrow will be 3m 29s shorter.
Waxing Crescent, 37% of the Moon is Illuminated
Vandag
Waxing Crescent
Oct 1
Eerste Kwartier
Oct 8
Vol Maan
Oct 15
Laaste kwarter
Oct 23
New

Today's Extremes

State Highs State Lows

Community

WunderPhotos

Upload Photos

1,757,636 photos uploaded!

Nearby

Snow Depth

Station Depth Elevation
No new snow has been reported.

Earthquake Activity

Stad Distance Mag. Time & Date
No recent earthquake activity has been reported nearby.
Minimum magnitude displayed is 2.5.

Coastal Water Temperatures

Plek Temperatuur
No Stations Reporting

Nearby Weather Stations